<?xml version="1.0" encoding="UTF-8" standalone="no" ?>
<gpx xmlns="http://www.topografix.com/GPX/1/1" xmlns:xsi="http://www.w3.org/2001/XMLSchema-instance" xsi:schemaLocation="http://www.topografix.com/GPX/1/1 http://www.topografix.com/GPX/1/1/gpx.xsd" version="1.1" creator="VisuGPX - https://www.visugpx.com">
  <metadata>
    <name>14446841-courances</name>
  </metadata>
  <trk>
    <name><![CDATA[14446841-courances]]></name>
    <trkseg>
      <trkpt lat="48.4401" lon="2.47409">
        <ele>69</ele>
        <time>2022-03-22T18:02:22Z</time>
      </trkpt>
      <trkpt lat="48.44029" lon="2.47447">
        <ele>69</ele>
        <time>2022-03-22T18:03:04Z</time>
      </trkpt>
      <trkpt lat="48.44023" lon="2.47462">
        <ele>69</ele>
        <time>2022-03-22T18:03:20Z</time>
      </trkpt>
      <trkpt lat="48.44025" lon="2.47474">
        <ele>69</ele>
        <time>2022-03-22T18:03:31Z</time>
      </trkpt>
      <trkpt lat="48.44028" lon="2.47515">
        <ele>70</ele>
        <time>2022-03-22T18:04:07Z</time>
      </trkpt>
      <trkpt lat="48.44034" lon="2.47524">
        <ele>70</ele>
        <time>2022-03-22T18:04:18Z</time>
      </trkpt>
      <trkpt lat="48.44055" lon="2.47598">
        <ele>71</ele>
        <time>2022-03-22T18:05:30Z</time>
      </trkpt>
      <trkpt lat="48.44065" lon="2.47645">
        <ele>71</ele>
        <time>2022-03-22T18:06:13Z</time>
      </trkpt>
      <trkpt lat="48.44081" lon="2.47734">
        <ele>72</ele>
        <time>2022-03-22T18:07:35Z</time>
      </trkpt>
      <trkpt lat="48.44082" lon="2.47787">
        <ele>72</ele>
        <time>2022-03-22T18:08:22Z</time>
      </trkpt>
      <trkpt lat="48.44086" lon="2.47829">
        <ele>73</ele>
        <time>2022-03-22T18:08:59Z</time>
      </trkpt>
      <trkpt lat="48.44127" lon="2.48183">
        <ele>73</ele>
        <time>2022-03-22T18:14:18Z</time>
      </trkpt>
      <trkpt lat="48.44149" lon="2.48409">
        <ele>78</ele>
        <time>2022-03-22T18:17:40Z</time>
      </trkpt>
      <trkpt lat="48.44149" lon="2.48473">
        <ele>80</ele>
        <time>2022-03-22T18:18:36Z</time>
      </trkpt>
      <trkpt lat="48.44155" lon="2.48584">
        <ele>81</ele>
        <time>2022-03-22T18:20:15Z</time>
      </trkpt>
      <trkpt lat="48.44162" lon="2.48725">
        <ele>86</ele>
        <time>2022-03-22T18:22:20Z</time>
      </trkpt>
      <trkpt lat="48.44153" lon="2.48922">
        <ele>88</ele>
        <time>2022-03-22T18:25:15Z</time>
      </trkpt>
      <trkpt lat="48.44142" lon="2.49021">
        <ele>89</ele>
        <time>2022-03-22T18:26:44Z</time>
      </trkpt>
      <trkpt lat="48.44269" lon="2.49303">
        <ele>96</ele>
        <time>2022-03-22T18:31:46Z</time>
      </trkpt>
      <trkpt lat="48.4425" lon="2.49342">
        <ele>98</ele>
        <time>2022-03-22T18:32:28Z</time>
      </trkpt>
      <trkpt lat="48.43716" lon="2.49562">
        <ele>128</ele>
        <time>2022-03-22T18:44:47Z</time>
      </trkpt>
      <trkpt lat="48.43412" lon="2.49673">
        <ele>102</ele>
        <time>2022-03-22T18:51:45Z</time>
      </trkpt>
      <trkpt lat="48.43352" lon="2.49694">
        <ele>93</ele>
        <time>2022-03-22T18:53:07Z</time>
      </trkpt>
      <trkpt lat="48.43264" lon="2.50006">
        <ele>90</ele>
        <time>2022-03-22T18:58:07Z</time>
      </trkpt>
      <trkpt lat="48.42684" lon="2.50266">
        <ele>80</ele>
        <time>2022-03-22T19:11:35Z</time>
      </trkpt>
      <trkpt lat="48.4238" lon="2.50418">
        <ele>95</ele>
        <time>2022-03-22T19:18:42Z</time>
      </trkpt>
      <trkpt lat="48.42219" lon="2.50614">
        <ele>100</ele>
        <time>2022-03-22T19:23:18Z</time>
      </trkpt>
      <trkpt lat="48.42038" lon="2.50694">
        <ele>125</ele>
        <time>2022-03-22T19:27:30Z</time>
      </trkpt>
      <trkpt lat="48.41678" lon="2.50815">
        <ele>133</ele>
        <time>2022-03-22T19:35:42Z</time>
      </trkpt>
      <trkpt lat="48.4144" lon="2.50885">
        <ele>129</ele>
        <time>2022-03-22T19:41:06Z</time>
      </trkpt>
      <trkpt lat="48.41352" lon="2.50919">
        <ele>122</ele>
        <time>2022-03-22T19:43:07Z</time>
      </trkpt>
      <trkpt lat="48.4127" lon="2.50968">
        <ele>109</ele>
        <time>2022-03-22T19:45:05Z</time>
      </trkpt>
      <trkpt lat="48.41168" lon="2.5104">
        <ele>98</ele>
        <time>2022-03-22T19:47:35Z</time>
      </trkpt>
      <trkpt lat="48.41135" lon="2.51158">
        <ele>100</ele>
        <time>2022-03-22T19:49:28Z</time>
      </trkpt>
      <trkpt lat="48.4105" lon="2.51544">
        <ele>96</ele>
        <time>2022-03-22T19:55:29Z</time>
      </trkpt>
      <trkpt lat="48.41006" lon="2.51508">
        <ele>102</ele>
        <time>2022-03-22T19:56:35Z</time>
      </trkpt>
      <trkpt lat="48.40932" lon="2.51491">
        <ele>104</ele>
        <time>2022-03-22T19:58:15Z</time>
      </trkpt>
      <trkpt lat="48.40889" lon="2.5149">
        <ele>100</ele>
        <time>2022-03-22T19:59:13Z</time>
      </trkpt>
      <trkpt lat="48.40854" lon="2.51432">
        <ele>90</ele>
        <time>2022-03-22T20:00:22Z</time>
      </trkpt>
      <trkpt lat="48.4079" lon="2.51392">
        <ele>82</ele>
        <time>2022-03-22T20:01:55Z</time>
      </trkpt>
      <trkpt lat="48.40841" lon="2.5128">
        <ele>82</ele>
        <time>2022-03-22T20:03:55Z</time>
      </trkpt>
      <trkpt lat="48.4088" lon="2.51179">
        <ele>82</ele>
        <time>2022-03-22T20:05:38Z</time>
      </trkpt>
      <trkpt lat="48.40908" lon="2.51037">
        <ele>82</ele>
        <time>2022-03-22T20:07:50Z</time>
      </trkpt>
      <trkpt lat="48.40923" lon="2.50889">
        <ele>83</ele>
        <time>2022-03-22T20:10:02Z</time>
      </trkpt>
      <trkpt lat="48.40937" lon="2.50831">
        <ele>84</ele>
        <time>2022-03-22T20:10:57Z</time>
      </trkpt>
      <trkpt lat="48.40952" lon="2.50715">
        <ele>83</ele>
        <time>2022-03-22T20:12:42Z</time>
      </trkpt>
      <trkpt lat="48.40951" lon="2.5065">
        <ele>81</ele>
        <time>2022-03-22T20:13:39Z</time>
      </trkpt>
      <trkpt lat="48.4094" lon="2.50441">
        <ele>82</ele>
        <time>2022-03-22T20:16:45Z</time>
      </trkpt>
      <trkpt lat="48.40949" lon="2.50383">
        <ele>83</ele>
        <time>2022-03-22T20:17:38Z</time>
      </trkpt>
      <trkpt lat="48.40961" lon="2.50216">
        <ele>85</ele>
        <time>2022-03-22T20:20:06Z</time>
      </trkpt>
      <trkpt lat="48.40974" lon="2.50158">
        <ele>87</ele>
        <time>2022-03-22T20:21:01Z</time>
      </trkpt>
      <trkpt lat="48.40974" lon="2.50044">
        <ele>88</ele>
        <time>2022-03-22T20:22:42Z</time>
      </trkpt>
      <trkpt lat="48.41" lon="2.49976">
        <ele>88</ele>
        <time>2022-03-22T20:23:51Z</time>
      </trkpt>
      <trkpt lat="48.4101" lon="2.49797">
        <ele>89</ele>
        <time>2022-03-22T20:26:30Z</time>
      </trkpt>
      <trkpt lat="48.41013" lon="2.49754">
        <ele>89</ele>
        <time>2022-03-22T20:27:09Z</time>
      </trkpt>
      <trkpt lat="48.41026" lon="2.49705">
        <ele>92</ele>
        <time>2022-03-22T20:27:55Z</time>
      </trkpt>
      <trkpt lat="48.41047" lon="2.49478">
        <ele>107</ele>
        <time>2022-03-22T20:31:18Z</time>
      </trkpt>
      <trkpt lat="48.41104" lon="2.49221">
        <ele>109</ele>
        <time>2022-03-22T20:35:18Z</time>
      </trkpt>
      <trkpt lat="48.41104" lon="2.49165">
        <ele>105</ele>
        <time>2022-03-22T20:36:08Z</time>
      </trkpt>
      <trkpt lat="48.41175" lon="2.48962">
        <ele>96</ele>
        <time>2022-03-22T20:39:31Z</time>
      </trkpt>
      <trkpt lat="48.41198" lon="2.48835">
        <ele>98</ele>
        <time>2022-03-22T20:41:28Z</time>
      </trkpt>
      <trkpt lat="48.41219" lon="2.48667">
        <ele>97</ele>
        <time>2022-03-22T20:43:59Z</time>
      </trkpt>
      <trkpt lat="48.41283" lon="2.48451">
        <ele>97</ele>
        <time>2022-03-22T20:47:29Z</time>
      </trkpt>
      <trkpt lat="48.41277" lon="2.48144">
        <ele>82</ele>
        <time>2022-03-22T20:52:01Z</time>
      </trkpt>
      <trkpt lat="48.4128" lon="2.47993">
        <ele>79</ele>
        <time>2022-03-22T20:54:15Z</time>
      </trkpt>
      <trkpt lat="48.41274" lon="2.4789">
        <ele>76</ele>
        <time>2022-03-22T20:55:46Z</time>
      </trkpt>
      <trkpt lat="48.41237" lon="2.47731">
        <ele>74</ele>
        <time>2022-03-22T20:58:15Z</time>
      </trkpt>
      <trkpt lat="48.41208" lon="2.47693">
        <ele>75</ele>
        <time>2022-03-22T20:59:07Z</time>
      </trkpt>
      <trkpt lat="48.41143" lon="2.47527">
        <ele>73</ele>
        <time>2022-03-22T21:01:57Z</time>
      </trkpt>
      <trkpt lat="48.41113" lon="2.47486">
        <ele>73</ele>
        <time>2022-03-22T21:02:52Z</time>
      </trkpt>
      <trkpt lat="48.41023" lon="2.473">
        <ele>68</ele>
        <time>2022-03-22T21:06:15Z</time>
      </trkpt>
      <trkpt lat="48.4081" lon="2.47195">
        <ele>66</ele>
        <time>2022-03-22T21:11:15Z</time>
      </trkpt>
      <trkpt lat="48.40649" lon="2.47197">
        <ele>66</ele>
        <time>2022-03-22T21:14:49Z</time>
      </trkpt>
      <trkpt lat="48.40631" lon="2.47211">
        <ele>66</ele>
        <time>2022-03-22T21:15:16Z</time>
      </trkpt>
      <trkpt lat="48.40387" lon="2.47211">
        <ele>67</ele>
        <time>2022-03-22T21:20:42Z</time>
      </trkpt>
      <trkpt lat="48.4036" lon="2.4719">
        <ele>67</ele>
        <time>2022-03-22T21:21:23Z</time>
      </trkpt>
      <trkpt lat="48.40321" lon="2.47199">
        <ele>68</ele>
        <time>2022-03-22T21:22:15Z</time>
      </trkpt>
      <trkpt lat="48.4032" lon="2.47163">
        <ele>67</ele>
        <time>2022-03-22T21:22:47Z</time>
      </trkpt>
      <trkpt lat="48.40326" lon="2.47015">
        <ele>68</ele>
        <time>2022-03-22T21:24:58Z</time>
      </trkpt>
      <trkpt lat="48.40348" lon="2.4688">
        <ele>67</ele>
        <time>2022-03-22T21:27:02Z</time>
      </trkpt>
      <trkpt lat="48.40353" lon="2.46834">
        <ele>67</ele>
        <time>2022-03-22T21:27:43Z</time>
      </trkpt>
      <trkpt lat="48.40341" lon="2.46784">
        <ele>67</ele>
        <time>2022-03-22T21:28:30Z</time>
      </trkpt>
      <trkpt lat="48.4033" lon="2.46658">
        <ele>66</ele>
        <time>2022-03-22T21:30:23Z</time>
      </trkpt>
      <trkpt lat="48.40322" lon="2.46619">
        <ele>66</ele>
        <time>2022-03-22T21:30:59Z</time>
      </trkpt>
      <trkpt lat="48.40324" lon="2.46575">
        <ele>66</ele>
        <time>2022-03-22T21:31:38Z</time>
      </trkpt>
      <trkpt lat="48.40316" lon="2.46522">
        <ele>66</ele>
        <time>2022-03-22T21:32:26Z</time>
      </trkpt>
      <trkpt lat="48.40305" lon="2.46457">
        <ele>66</ele>
        <time>2022-03-22T21:33:25Z</time>
      </trkpt>
      <trkpt lat="48.40425" lon="2.46479">
        <ele>65</ele>
        <time>2022-03-22T21:36:07Z</time>
      </trkpt>
      <trkpt lat="48.40435" lon="2.46256">
        <ele>63</ele>
        <time>2022-03-22T21:39:25Z</time>
      </trkpt>
      <trkpt lat="48.40511" lon="2.46294">
        <ele>64</ele>
        <time>2022-03-22T21:41:12Z</time>
      </trkpt>
      <trkpt lat="48.40557" lon="2.46278">
        <ele>63</ele>
        <time>2022-03-22T21:42:15Z</time>
      </trkpt>
      <trkpt lat="48.40614" lon="2.46285">
        <ele>63</ele>
        <time>2022-03-22T21:43:31Z</time>
      </trkpt>
      <trkpt lat="48.40648" lon="2.46284">
        <ele>63</ele>
        <time>2022-03-22T21:44:16Z</time>
      </trkpt>
      <trkpt lat="48.40701" lon="2.46213">
        <ele>66</ele>
        <time>2022-03-22T21:45:51Z</time>
      </trkpt>
      <trkpt lat="48.40741" lon="2.46181">
        <ele>70</ele>
        <time>2022-03-22T21:46:51Z</time>
      </trkpt>
      <trkpt lat="48.40752" lon="2.46219">
        <ele>69</ele>
        <time>2022-03-22T21:47:28Z</time>
      </trkpt>
      <trkpt lat="48.40782" lon="2.46225">
        <ele>68</ele>
        <time>2022-03-22T21:48:09Z</time>
      </trkpt>
      <trkpt lat="48.40846" lon="2.46203">
        <ele>67</ele>
        <time>2022-03-22T21:49:36Z</time>
      </trkpt>
      <trkpt lat="48.4089" lon="2.46169">
        <ele>67</ele>
        <time>2022-03-22T21:50:42Z</time>
      </trkpt>
      <trkpt lat="48.4097" lon="2.46132">
        <ele>64</ele>
        <time>2022-03-22T21:52:34Z</time>
      </trkpt>
      <trkpt lat="48.40972" lon="2.46114">
        <ele>64</ele>
        <time>2022-03-22T21:52:50Z</time>
      </trkpt>
      <trkpt lat="48.40892" lon="2.45889">
        <ele>71</ele>
        <time>2022-03-22T21:56:36Z</time>
      </trkpt>
      <trkpt lat="48.41005" lon="2.4589">
        <ele>73</ele>
        <time>2022-03-22T21:59:07Z</time>
      </trkpt>
      <trkpt lat="48.41117" lon="2.45928">
        <ele>74</ele>
        <time>2022-03-22T22:01:40Z</time>
      </trkpt>
      <trkpt lat="48.41475" lon="2.45875">
        <ele>75</ele>
        <time>2022-03-22T22:09:40Z</time>
      </trkpt>
      <trkpt lat="48.41472" lon="2.45699">
        <ele>78</ele>
        <time>2022-03-22T22:12:16Z</time>
      </trkpt>
      <trkpt lat="48.41471" lon="2.45654">
        <ele>79</ele>
        <time>2022-03-22T22:12:56Z</time>
      </trkpt>
      <trkpt lat="48.41492" lon="2.45619">
        <ele>79</ele>
        <time>2022-03-22T22:13:38Z</time>
      </trkpt>
      <trkpt lat="48.41518" lon="2.45595">
        <ele>79</ele>
        <time>2022-03-22T22:14:18Z</time>
      </trkpt>
      <trkpt lat="48.416" lon="2.45665">
        <ele>77</ele>
        <time>2022-03-22T22:16:24Z</time>
      </trkpt>
      <trkpt lat="48.416" lon="2.44927">
        <ele>74</ele>
        <time>2022-03-22T22:27:18Z</time>
      </trkpt>
      <trkpt lat="48.41625" lon="2.44905">
        <ele>74</ele>
        <time>2022-03-22T22:27:56Z</time>
      </trkpt>
      <trkpt lat="48.41583" lon="2.4477">
        <ele>77</ele>
        <time>2022-03-22T22:30:09Z</time>
      </trkpt>
      <trkpt lat="48.41822" lon="2.44496">
        <ele>81</ele>
        <time>2022-03-22T22:36:49Z</time>
      </trkpt>
      <trkpt lat="48.41868" lon="2.44406">
        <ele>81</ele>
        <time>2022-03-22T22:38:30Z</time>
      </trkpt>
      <trkpt lat="48.41926" lon="2.44323">
        <ele>81</ele>
        <time>2022-03-22T22:40:17Z</time>
      </trkpt>
      <trkpt lat="48.42012" lon="2.44117">
        <ele>81</ele>
        <time>2022-03-22T22:43:52Z</time>
      </trkpt>
      <trkpt lat="48.42002" lon="2.44054">
        <ele>81</ele>
        <time>2022-03-22T22:44:50Z</time>
      </trkpt>
      <trkpt lat="48.42133" lon="2.43761">
        <ele>95</ele>
        <time>2022-03-22T22:50:02Z</time>
      </trkpt>
      <trkpt lat="48.42166" lon="2.43734">
        <ele>100</ele>
        <time>2022-03-22T22:50:53Z</time>
      </trkpt>
      <trkpt lat="48.42153" lon="2.43684">
        <ele>103</ele>
        <time>2022-03-22T22:51:40Z</time>
      </trkpt>
      <trkpt lat="48.42202" lon="2.43521">
        <ele>124</ele>
        <time>2022-03-22T22:54:19Z</time>
      </trkpt>
      <trkpt lat="48.42073" lon="2.43424">
        <ele>122</ele>
        <time>2022-03-22T22:57:31Z</time>
      </trkpt>
      <trkpt lat="48.42128" lon="2.4329">
        <ele>132</ele>
        <time>2022-03-22T22:59:50Z</time>
      </trkpt>
      <trkpt lat="48.42232" lon="2.43341">
        <ele>135</ele>
        <time>2022-03-22T23:02:16Z</time>
      </trkpt>
      <trkpt lat="48.42354" lon="2.43489">
        <ele>132</ele>
        <time>2022-03-22T23:05:45Z</time>
      </trkpt>
      <trkpt lat="48.42474" lon="2.43552">
        <ele>131</ele>
        <time>2022-03-22T23:08:35Z</time>
      </trkpt>
      <trkpt lat="48.42539" lon="2.43552">
        <ele>130</ele>
        <time>2022-03-22T23:10:02Z</time>
      </trkpt>
      <trkpt lat="48.42691" lon="2.43615">
        <ele>121</ele>
        <time>2022-03-22T23:13:32Z</time>
      </trkpt>
      <trkpt lat="48.42704" lon="2.43586">
        <ele>119</ele>
        <time>2022-03-22T23:14:03Z</time>
      </trkpt>
      <trkpt lat="48.42776" lon="2.43642">
        <ele>120</ele>
        <time>2022-03-22T23:15:51Z</time>
      </trkpt>
      <trkpt lat="48.42777" lon="2.43767">
        <ele>123</ele>
        <time>2022-03-22T23:17:42Z</time>
      </trkpt>
      <trkpt lat="48.42849" lon="2.43879">
        <ele>119</ele>
        <time>2022-03-22T23:20:00Z</time>
      </trkpt>
      <trkpt lat="48.42848" lon="2.44169">
        <ele>124</ele>
        <time>2022-03-22T23:24:17Z</time>
      </trkpt>
      <trkpt lat="48.42838" lon="2.44232">
        <ele>124</ele>
        <time>2022-03-22T23:25:14Z</time>
      </trkpt>
      <trkpt lat="48.42827" lon="2.44268">
        <ele>124</ele>
        <time>2022-03-22T23:25:49Z</time>
      </trkpt>
      <trkpt lat="48.42819" lon="2.44324">
        <ele>123</ele>
        <time>2022-03-22T23:26:40Z</time>
      </trkpt>
      <trkpt lat="48.42819" lon="2.4438">
        <ele>122</ele>
        <time>2022-03-22T23:27:30Z</time>
      </trkpt>
      <trkpt lat="48.4282" lon="2.44523">
        <ele>121</ele>
        <time>2022-03-22T23:29:36Z</time>
      </trkpt>
      <trkpt lat="48.42863" lon="2.44535">
        <ele>123</ele>
        <time>2022-03-22T23:30:35Z</time>
      </trkpt>
      <trkpt lat="48.42946" lon="2.4466">
        <ele>126</ele>
        <time>2022-03-22T23:33:11Z</time>
      </trkpt>
      <trkpt lat="48.42972" lon="2.44736">
        <ele>128</ele>
        <time>2022-03-22T23:34:27Z</time>
      </trkpt>
      <trkpt lat="48.42981" lon="2.44877">
        <ele>123</ele>
        <time>2022-03-22T23:36:32Z</time>
      </trkpt>
      <trkpt lat="48.42964" lon="2.44896">
        <ele>123</ele>
        <time>2022-03-22T23:37:01Z</time>
      </trkpt>
      <trkpt lat="48.42991" lon="2.44918">
        <ele>120</ele>
        <time>2022-03-22T23:37:41Z</time>
      </trkpt>
      <trkpt lat="48.42977" lon="2.45028">
        <ele>109</ele>
        <time>2022-03-22T23:39:21Z</time>
      </trkpt>
      <trkpt lat="48.42956" lon="2.45064">
        <ele>108</ele>
        <time>2022-03-22T23:40:03Z</time>
      </trkpt>
      <trkpt lat="48.42962" lon="2.45106">
        <ele>104</ele>
        <time>2022-03-22T23:40:41Z</time>
      </trkpt>
      <trkpt lat="48.42964" lon="2.45156">
        <ele>101</ele>
        <time>2022-03-22T23:41:26Z</time>
      </trkpt>
      <trkpt lat="48.42991" lon="2.45248">
        <ele>91</ele>
        <time>2022-03-22T23:42:55Z</time>
      </trkpt>
      <trkpt lat="48.43044" lon="2.45351">
        <ele>80</ele>
        <time>2022-03-22T23:44:50Z</time>
      </trkpt>
      <trkpt lat="48.43045" lon="2.45513">
        <ele>70</ele>
        <time>2022-03-22T23:47:13Z</time>
      </trkpt>
      <trkpt lat="48.43176" lon="2.45501">
        <ele>67</ele>
        <time>2022-03-22T23:50:09Z</time>
      </trkpt>
      <trkpt lat="48.43244" lon="2.45485">
        <ele>68</ele>
        <time>2022-03-22T23:51:40Z</time>
      </trkpt>
      <trkpt lat="48.43328" lon="2.45445">
        <ele>67</ele>
        <time>2022-03-22T23:53:38Z</time>
      </trkpt>
      <trkpt lat="48.43321" lon="2.45595">
        <ele>66</ele>
        <time>2022-03-22T23:55:51Z</time>
      </trkpt>
      <trkpt lat="48.43315" lon="2.45636">
        <ele>65</ele>
        <time>2022-03-22T23:56:28Z</time>
      </trkpt>
      <trkpt lat="48.43324" lon="2.4573">
        <ele>62</ele>
        <time>2022-03-22T23:57:52Z</time>
      </trkpt>
      <trkpt lat="48.43357" lon="2.45712">
        <ele>62</ele>
        <time>2022-03-22T23:58:39Z</time>
      </trkpt>
      <trkpt lat="48.43376" lon="2.45777">
        <ele>61</ele>
        <time>2022-03-22T23:59:42Z</time>
      </trkpt>
      <trkpt lat="48.43379" lon="2.45802">
        <ele>61</ele>
        <time>2022-03-23T00:00:05Z</time>
      </trkpt>
      <trkpt lat="48.43364" lon="2.45987">
        <ele>60</ele>
        <time>2022-03-23T00:02:50Z</time>
      </trkpt>
      <trkpt lat="48.43359" lon="2.46096">
        <ele>63</ele>
        <time>2022-03-23T00:04:26Z</time>
      </trkpt>
      <trkpt lat="48.43356" lon="2.46137">
        <ele>63</ele>
        <time>2022-03-23T00:05:03Z</time>
      </trkpt>
      <trkpt lat="48.4335" lon="2.46183">
        <ele>64</ele>
        <time>2022-03-23T00:05:44Z</time>
      </trkpt>
      <trkpt lat="48.43327" lon="2.46388">
        <ele>70</ele>
        <time>2022-03-23T00:08:48Z</time>
      </trkpt>
      <trkpt lat="48.43321" lon="2.46445">
        <ele>74</ele>
        <time>2022-03-23T00:09:40Z</time>
      </trkpt>
      <trkpt lat="48.43274" lon="2.46845">
        <ele>73</ele>
        <time>2022-03-23T00:15:39Z</time>
      </trkpt>
      <trkpt lat="48.43724" lon="2.47201">
        <ele>67</ele>
        <time>2022-03-23T00:26:57Z</time>
      </trkpt>
      <trkpt lat="48.43752" lon="2.47078">
        <ele>69</ele>
        <time>2022-03-23T00:28:53Z</time>
      </trkpt>
      <trkpt lat="48.43779" lon="2.47065">
        <ele>69</ele>
        <time>2022-03-23T00:29:30Z</time>
      </trkpt>
      <trkpt lat="48.43822" lon="2.47132">
        <ele>68</ele>
        <time>2022-03-23T00:30:53Z</time>
      </trkpt>
      <trkpt lat="48.43879" lon="2.47261">
        <ele>67</ele>
        <time>2022-03-23T00:33:10Z</time>
      </trkpt>
      <trkpt lat="48.43909" lon="2.47342">
        <ele>67</ele>
        <time>2022-03-23T00:34:32Z</time>
      </trkpt>
      <trkpt lat="48.43921" lon="2.4736">
        <ele>67</ele>
        <time>2022-03-23T00:34:55Z</time>
      </trkpt>
      <trkpt lat="48.43941" lon="2.47381">
        <ele>67</ele>
        <time>2022-03-23T00:35:27Z</time>
      </trkpt>
      <trkpt lat="48.43991" lon="2.47391">
        <ele>69</ele>
        <time>2022-03-23T00:36:35Z</time>
      </trkpt>
      <trkpt lat="48.44006" lon="2.47399">
        <ele>69</ele>
        <time>2022-03-23T00:36:56Z</time>
      </trkpt>
    </trkseg>
  </trk>
</gpx>